Time;durP1;ratioP1;P1;durP2;ratioP2;P2;SDS_P1;SDS_P2;PMS_P1;PMS_P2;Temp;Humidity;BMP_temperature;BMP_pressure;BME280_temperature;BME280_humidity;BME280_pressure;Samples;Min_cycle;Max_cycle;Signal;HPM_P1;HPM_P2
2022/03/13 00:01:02;;;;;;;;;11.00;9.00;;;;;;;;5060716;28;51107;-60
2022/03/13 00:03:46;;;;;;;;;7.75;7.00;;;;;;;;5060853;28;51170;-59
2022/03/13 00:06:32;;;;;;;;;13.50;8.00;;;;;;;;5060767;28;51586;-60
2022/03/13 00:09:19;;;;;;;;;10.25;6.75;;;;;;;;5060290;28;51097;-60
2022/03/13 00:12:10;;;;;;;;;9.75;6.25;;;;;;;;5059379;28;51089;-60
2022/03/13 00:15:02;;;;;;;;;5.75;5.75;;;;;;;;5060424;28;51445;-59
2022/03/13 00:17:46;;;;;;;;;9.00;8.00;;;;;;;;5039190;28;51153;-60
2022/03/13 00:20:32;;;;;;;;;14.75;7.50;;;;;;;;5043514;28;51184;-60
2022/03/13 00:23:16;;;;;;;;;9.50;6.50;;;;;;;;5048629;28;51128;-60
2022/03/13 00:26:01;;;;;;;;;8.00;6.75;;;;;;;;5040094;28;51418;-60
2022/03/13 00:28:46;;;;;;;;;8.25;6.25;;;;;;;;5040016;28;51187;-60
2022/03/13 00:31:30;;;;;;;;;6.25;6.00;;;;;;;;5039922;28;51064;-60
2022/03/13 00:34:15;;;;;;;;;7.25;6.00;;;;;;;;5057125;28;51048;-59
2022/03/13 00:37:00;;;;;;;;;11.50;7.25;;;;;;;;5051240;28;50994;-60
2022/03/13 00:39:46;;;;;;;;;6.25;4.75;;;;;;;;5042682;28;51194;-60
2022/03/13 00:42:30;;;;;;;;;7.50;5.25;;;;;;;;5042547;28;51209;-60
2022/03/13 00:45:15;;;;;;;;;10.75;6.75;;;;;;;;5035609;28;51334;-60
2022/03/13 00:47:59;;;;;;;;;8.50;5.00;;;;;;;;5056866;28;51186;-60
2022/03/13 00:50:44;;;;;;;;;8.00;6.75;;;;;;;;5059487;28;51047;-60
2022/03/13 00:53:29;;;;;;;;;11.75;8.25;;;;;;;;5058665;28;51080;-60
2022/03/13 00:56:14;;;;;;;;;7.75;6.00;;;;;;;;5059654;28;51166;-60
2022/03/13 00:58:58;;;;;;;;;6.75;5.00;;;;;;;;5044421;28;51075;-60
2022/03/13 01:01:43;;;;;;;;;11.50;5.00;;;;;;;;5039673;28;51182;-59
2022/03/13 01:04:27;;;;;;;;;7.50;5.00;;;;;;;;5040189;28;51181;-60
2022/03/13 01:07:14;;;;;;;;;7.25;5.75;;;;;;;;5058885;28;51049;-60
2022/03/13 01:09:58;;;;;;;;;7.00;6.50;;;;;;;;5044219;28;51041;-60
2022/03/13 01:12:42;;;;;;;;;7.75;5.75;;;;;;;;5058372;28;51202;-60
2022/03/13 01:15:27;;;;;;;;;6.75;5.75;;;;;;;;5041694;28;51526;-60
2022/03/13 01:18:11;;;;;;;;;9.00;6.00;;;;;;;;5023856;28;51208;-60
2022/03/13 01:20:56;;;;;;;;;6.50;5.75;;;;;;;;5052501;28;51064;-60
2022/03/13 01:23:41;;;;;;;;;6.50;6.50;;;;;;;;5048311;28;51046;-60
2022/03/13 01:26:25;;;;;;;;;6.50;4.50;;;;;;;;5039490;28;51031;-60
2022/03/13 01:29:13;;;;;;;;;7.50;5.00;;;;;;;;5039029;28;51369;-60
2022/03/13 01:31:58;;;;;;;;;7.25;5.00;;;;;;;;5039496;28;51088;-60
2022/03/13 01:34:44;;;;;;;;;6.00;6.00;;;;;;;;5041471;28;51295;-59
2022/03/13 01:37:30;;;;;;;;;4.75;4.75;;;;;;;;5059228;28;51135;-59
2022/03/13 01:40:19;;;;;;;;;7.25;4.75;;;;;;;;5041639;28;51027;-60
2022/03/13 01:43:03;;;;;;;;;7.50;5.25;;;;;;;;5039087;28;51332;-59
2022/03/13 01:45:47;;;;;;;;;7.00;6.00;;;;;;;;5047124;28;51306;-60
2022/03/13 01:48:38;;;;;;;;;7.75;4.75;;;;;;;;5059241;28;51136;-60
2022/03/13 01:51:23;;;;;;;;;5.25;4.00;;;;;;;;5059517;28;51072;-59
2022/03/13 01:54:09;;;;;;;;;9.00;7.25;;;;;;;;5058878;28;51454;-60
2022/03/13 01:56:53;;;;;;;;;7.25;5.75;;;;;;;;5058870;28;51642;-59
2022/03/13 01:59:38;;;;;;;;;8.75;6.25;;;;;;;;5059333;28;51135;-60
2022/03/13 02:02:23;;;;;;;;;9.25;6.75;;;;;;;;5059204;28;51323;-60
2022/03/13 02:05:16;;;;;;;;;10.25;4.75;;;;;;;;5058646;28;51177;-60
2022/03/13 02:08:17;;;;;;;;;9.00;5.50;;;;;;;;5062911;28;51081;-60
2022/03/13 02:11:01;;;;;;;;;5.75;5.00;;;;;;;;5062913;28;51553;-60
2022/03/13 02:13:48;;;;;;;;;7.00;5.50;;;;;;;;5063103;28;50995;-60
2022/03/13 02:16:32;;;;;;;;;6.75;4.00;;;;;;;;5063185;28;51004;-60
2022/03/13 02:19:17;;;;;;;;;7.00;6.00;;;;;;;;5062565;28;51553;-60
2022/03/13 02:22:02;;;;;;;;;8.50;5.00;;;;;;;;5040940;28;51034;-60
2022/03/13 02:24:48;;;;;;;;;8.75;6.50;;;;;;;;5042341;28;51497;-59
2022/03/13 02:27:32;;;;;;;;;6.50;4.50;;;;;;;;5041750;28;51102;-60
2022/03/13 02:30:21;;;;;;;;;4.50;4.50;;;;;;;;5060004;28;51066;-59
2022/03/13 02:33:06;;;;;;;;;7.75;7.75;;;;;;;;5062508;28;51150;-60
2022/03/13 02:36:21;;;;;;;;;15.50;12.75;;;;;;;;5062701;28;51334;-59
2022/03/13 02:39:06;;;;;;;;;22.50;20.25;;;;;;;;5062280;28;51219;-60
2022/03/13 02:41:51;;;;;;;;;29.50;24.75;;;;;;;;5062986;28;51083;-59
2022/03/13 02:44:36;;;;;;;;;32.50;26.75;;;;;;;;5062179;28;51363;-60
2022/03/13 02:47:20;;;;;;;;;40.25;30.75;;;;;;;;5062235;28;51212;-60
2022/03/13 02:50:05;;;;;;;;;33.00;29.75;;;;;;;;5048447;28;51563;-60
2022/03/13 02:52:49;;;;;;;;;39.25;33.00;;;;;;;;5055592;28;51182;-60
2022/03/13 02:55:34;;;;;;;;;40.25;33.25;;;;;;;;5041665;28;51167;-59
2022/03/13 02:58:18;;;;;;;;;47.00;36.25;;;;;;;;5041977;28;51155;-60
2022/03/13 03:01:03;;;;;;;;;51.00;39.25;;;;;;;;5041662;28;51670;-60
2022/03/13 03:03:54;;;;;;;;;55.00;43.00;;;;;;;;5041659;28;51163;-60
2022/03/13 03:06:39;;;;;;;;;52.25;41.75;;;;;;;;5042170;28;51003;-60
2022/03/13 03:09:24;;;;;;;;;54.25;43.75;;;;;;;;5052621;28;51091;-60
2022/03/13 03:12:09;;;;;;;;;51.00;42.50;;;;;;;;5052699;28;51307;-59
2022/03/13 03:14:53;;;;;;;;;54.75;43.00;;;;;;;;5041860;28;51667;-59
2022/03/13 03:17:38;;;;;;;;;55.25;45.25;;;;;;;;5061257;28;51120;-60
2022/03/13 03:20:22;;;;;;;;;55.25;44.25;;;;;;;;5046696;28;51418;-60
2022/03/13 03:23:07;;;;;;;;;56.50;44.75;;;;;;;;5045403;28;51190;-60
2022/03/13 03:25:51;;;;;;;;;56.75;44.75;;;;;;;;5043013;28;51211;-60
2022/03/13 03:28:36;;;;;;;;;58.00;46.25;;;;;;;;5041306;28;51006;-60
2022/03/13 03:31:20;;;;;;;;;57.00;45.00;;;;;;;;5044458;28;51534;-59
2022/03/13 03:34:07;;;;;;;;;60.00;45.25;;;;;;;;5061273;28;51122;-60
2022/03/13 03:36:53;;;;;;;;;54.00;43.50;;;;;;;;5061376;28;51317;-60
2022/03/13 03:39:38;;;;;;;;;50.75;41.25;;;;;;;;5043773;28;51026;-60
2022/03/13 03:42:22;;;;;;;;;50.75;40.25;;;;;;;;5041339;28;51076;-60
2022/03/13 03:45:07;;;;;;;;;50.50;41.50;;;;;;;;5040439;28;51123;-60
2022/03/13 03:47:52;;;;;;;;;48.50;40.25;;;;;;;;5052002;28;52134;-60
2022/03/13 03:50:36;;;;;;;;;44.00;37.25;;;;;;;;5025494;28;51436;-60
2022/03/13 03:53:20;;;;;;;;;47.25;38.50;;;;;;;;5040616;28;51119;-60
2022/03/13 03:56:05;;;;;;;;;51.00;37.25;;;;;;;;5041148;28;51189;-60
2022/03/13 03:58:49;;;;;;;;;44.00;36.00;;;;;;;;5050226;28;51502;-60
2022/03/13 04:01:41;;;;;;;;;47.00;38.25;;;;;;;;5060341;28;51005;-60
2022/03/13 04:04:25;;;;;;;;;50.75;38.00;;;;;;;;5046350;28;51449;-59
2022/03/13 04:07:09;;;;;;;;;48.00;38.00;;;;;;;;5054688;28;51167;-60
2022/03/13 04:09:54;;;;;;;;;42.75;36.00;;;;;;;;5035847;28;51302;-60
2022/03/13 04:12:39;;;;;;;;;45.25;36.50;;;;;;;;5040453;28;51154;-60
2022/03/13 04:15:23;;;;;;;;;43.75;34.75;;;;;;;;5040755;28;51539;-60
2022/03/13 04:18:09;;;;;;;;;40.00;33.00;;;;;;;;5040186;28;51081;-60
2022/03/13 04:20:53;;;;;;;;;43.25;36.00;;;;;;;;5034654;28;51075;-60
2022/03/13 04:23:38;;;;;;;;;47.25;37.00;;;;;;;;5039071;28;51464;-59
2022/03/13 04:26:22;;;;;;;;;41.25;33.50;;;;;;;;5039320;28;51130;-60
2022/03/13 04:29:09;;;;;;;;;43.75;34.75;;;;;;;;5037256;28;51126;-60
2022/03/13 04:31:54;;;;;;;;;37.75;33.75;;;;;;;;5039651;28;51115;-60
2022/03/13 04:34:38;;;;;;;;;41.00;34.00;;;;;;;;5039506;28;51117;-60
2022/03/13 04:37:22;;;;;;;;;48.25;39.50;;;;;;;;5039745;28;51071;-60
2022/03/13 04:40:07;;;;;;;;;49.50;39.25;;;;;;;;5038810;28;51642;-60
2022/03/13 04:42:51;;;;;;;;;51.00;41.00;;;;;;;;5039169;28;51152;-59
2022/03/13 04:45:41;;;;;;;;;52.00;40.50;;;;;;;;5038942;28;51003;-60
2022/03/13 04:48:27;;;;;;;;;52.25;38.75;;;;;;;;5039385;28;51430;-60
2022/03/13 04:51:11;;;;;;;;;44.00;36.75;;;;;;;;5039349;28;51315;-59
2022/03/13 04:53:56;;;;;;;;;47.00;37.50;;;;;;;;5035983;28;51102;-59
2022/03/13 04:56:40;;;;;;;;;44.75;36.00;;;;;;;;5053013;28;51138;-59
2022/03/13 04:59:24;;;;;;;;;44.00;35.00;;;;;;;;5043520;28;51535;-60
2022/03/13 05:02:09;;;;;;;;;49.25;38.00;;;;;;;;5039526;28;51267;-60
2022/03/13 05:04:53;;;;;;;;;44.50;35.50;;;;;;;;5038707;28;51660;-60
2022/03/13 05:07:38;;;;;;;;;44.25;34.75;;;;;;;;5037656;28;51128;-59
2022/03/13 05:10:23;;;;;;;;;41.25;34.25;;;;;;;;5036816;28;51065;-60
2022/03/13 05:13:08;;;;;;;;;43.50;35.75;;;;;;;;5038449;28;51142;-60
2022/03/13 05:15:53;;;;;;;;;39.75;32.50;;;;;;;;5046045;28;50974;-60
2022/03/13 05:18:37;;;;;;;;;39.75;32.25;;;;;;;;5046092;28;51144;-59
2022/03/13 05:21:21;;;;;;;;;46.75;34.75;;;;;;;;5035722;28;51270;-59
2022/03/13 05:24:07;;;;;;;;;41.75;31.25;;;;;;;;4957969;28;51316;-60
2022/03/13 05:26:51;;;;;;;;;38.00;31.75;;;;;;;;4998058;28;51209;-59
2022/03/13 05:29:35;;;;;;;;;41.25;32.00;;;;;;;;4943099;28;54195;-60
2022/03/13 05:32:20;;;;;;;;;33.75;30.75;;;;;;;;4998871;28;51029;-60
2022/03/13 05:35:05;;;;;;;;;38.25;34.00;;;;;;;;4998014;28;51048;-60
2022/03/13 05:37:49;;;;;;;;;35.75;32.00;;;;;;;;4998008;28;51166;-59
2022/03/13 05:40:35;;;;;;;;;33.75;30.25;;;;;;;;4997332;28;51213;-50
2022/03/13 05:43:22;;;;;;;;;44.00;33.00;;;;;;;;4997195;28;51402;-51
2022/03/13 05:46:06;;;;;;;;;40.50;33.00;;;;;;;;4998111;28;51240;-50
2022/03/13 05:48:50;;;;;;;;;42.50;33.75;;;;;;;;4998403;28;51344;-47
2022/03/13 05:51:40;;;;;;;;;39.00;32.00;;;;;;;;4994737;28;51118;-49
2022/03/13 05:54:24;;;;;;;;;34.00;31.00;;;;;;;;4998765;28;51089;-50
2022/03/13 05:57:12;;;;;;;;;38.50;32.00;;;;;;;;4999086;28;51104;-46
2022/03/13 05:59:55;;;;;;;;;34.00;32.00;;;;;;;;4998480;28;51186;-50
2022/03/13 06:02:40;;;;;;;;;43.25;36.00;;;;;;;;4998428;28;51190;-50
2022/03/13 06:05:24;;;;;;;;;47.00;39.00;;;;;;;;4998259;28;51565;-48
2022/03/13 06:08:09;;;;;;;;;46.75;38.00;;;;;;;;4999060;28;51130;-50
2022/03/13 06:10:53;;;;;;;;;49.25;40.75;;;;;;;;4998917;28;51152;-50
2022/03/13 06:13:38;;;;;;;;;50.25;41.25;;;;;;;;4998338;28;51122;-49
2022/03/13 06:16:24;;;;;;;;;53.50;42.00;;;;;;;;4998925;28;51055;-46
2022/03/13 06:19:08;;;;;;;;;58.75;44.00;;;;;;;;4990250;28;51595;-47
2022/03/13 06:21:52;;;;;;;;;57.00;44.25;;;;;;;;4998102;28;51200;-49
2022/03/13 06:24:37;;;;;;;;;52.25;43.00;;;;;;;;4997963;28;51063;-51
2022/03/13 06:27:22;;;;;;;;;56.75;44.50;;;;;;;;4997246;28;51501;-48
2022/03/13 06:30:16;;;;;;;;;63.00;47.75;;;;;;;;4998395;28;51593;-47
2022/03/13 06:33:00;;;;;;;;;66.75;52.75;;;;;;;;4997173;28;51462;-47
2022/03/13 06:35:44;;;;;;;;;72.00;56.75;;;;;;;;4996768;28;51323;-50
2022/03/13 06:38:29;;;;;;;;;67.50;51.50;;;;;;;;4997269;28;51159;-49
2022/03/13 06:41:14;;;;;;;;;67.00;52.00;;;;;;;;4995327;28;51178;-49
2022/03/13 06:43:58;;;;;;;;;69.75;54.75;;;;;;;;4997856;28;51674;-49
2022/03/13 06:46:42;;;;;;;;;69.00;53.50;;;;;;;;4996598;28;51042;-51
2022/03/13 06:49:26;;;;;;;;;67.00;51.75;;;;;;;;4998526;28;51119;-47
2022/03/13 06:52:11;;;;;;;;;67.50;53.50;;;;;;;;4998289;28;51442;-51
2022/03/13 06:54:55;;;;;;;;;67.50;52.00;;;;;;;;4998492;28;51131;-49
2022/03/13 06:57:40;;;;;;;;;67.25;53.50;;;;;;;;4998060;28;51230;-51
2022/03/13 07:00:25;;;;;;;;;67.75;51.50;;;;;;;;5001874;28;51137;-46
2022/03/13 07:03:09;;;;;;;;;70.00;51.50;;;;;;;;5000725;28;52198;-51
2022/03/13 07:05:53;;;;;;;;;66.25;49.25;;;;;;;;5001136;28;51439;-49
2022/03/13 07:08:38;;;;;;;;;66.75;52.00;;;;;;;;5000364;28;51211;-48
2022/03/13 07:11:22;;;;;;;;;63.25;49.00;;;;;;;;5000878;28;51173;-47
2022/03/13 07:14:07;;;;;;;;;61.50;48.50;;;;;;;;5001774;28;51083;-48
2022/03/13 07:16:51;;;;;;;;;56.50;44.75;;;;;;;;5000455;28;51123;-46
2022/03/13 07:19:35;;;;;;;;;57.00;44.00;;;;;;;;5001102;28;51202;-48
2022/03/13 07:22:20;;;;;;;;;67.25;53.25;;;;;;;;4972348;28;51200;-45
2022/03/13 07:25:04;;;;;;;;;69.50;55.00;;;;;;;;4999577;28;51128;-48
2022/03/13 07:27:49;;;;;;;;;67.50;52.50;;;;;;;;4999228;28;51488;-46
2022/03/13 07:30:33;;;;;;;;;70.00;52.25;;;;;;;;5000605;28;51095;-46
2022/03/13 07:33:18;;;;;;;;;65.00;52.50;;;;;;;;5000019;28;51670;-48
2022/03/13 07:36:02;;;;;;;;;64.00;49.75;;;;;;;;4999343;28;51194;-46
2022/03/13 07:38:47;;;;;;;;;61.50;47.50;;;;;;;;4996835;28;51115;-51
2022/03/13 07:41:31;;;;;;;;;55.00;43.50;;;;;;;;4994973;28;51168;-48
2022/03/13 07:44:15;;;;;;;;;56.75;44.75;;;;;;;;4999247;28;51217;-49
2022/03/13 07:47:00;;;;;;;;;55.75;43.75;;;;;;;;4998737;28;51166;-50
2022/03/13 07:49:44;;;;;;;;;53.25;43.00;;;;;;;;4994867;28;51091;-46
2022/03/13 07:52:28;;;;;;;;;52.50;43.00;;;;;;;;4999851;28;51027;-49
2022/03/13 07:55:14;;;;;;;;;56.75;45.00;;;;;;;;4999272;28;51084;-49
2022/03/13 07:57:59;;;;;;;;;55.75;45.75;;;;;;;;4997799;28;51644;-47
2022/03/13 08:00:43;;;;;;;;;59.75;45.00;;;;;;;;4998429;28;51222;-49
2022/03/13 08:03:35;;;;;;;;;64.00;46.50;;;;;;;;4998942;28;51437;-46
2022/03/13 08:06:19;;;;;;;;;61.00;45.00;;;;;;;;4999236;28;51399;-50
2022/03/13 08:09:04;;;;;;;;;56.00;42.75;;;;;;;;4998685;28;51137;-50
2022/03/13 08:11:49;;;;;;;;;56.25;42.75;;;;;;;;4995943;28;51175;-52
2022/03/13 08:14:33;;;;;;;;;53.50;41.50;;;;;;;;4997613;28;51136;-45
2022/03/13 08:17:17;;;;;;;;;44.25;32.75;;;;;;;;4996849;28;51211;-47
2022/03/13 08:20:05;;;;;;;;;26.00;25.25;;;;;;;;4997842;28;51167;-49
2022/03/13 08:22:50;;;;;;;;;28.25;26.25;;;;;;;;4997896;28;51913;-45
2022/03/13 08:25:34;;;;;;;;;12.50;10.75;;;;;;;;4998189;28;51212;-46
2022/03/13 08:28:19;;;;;;;;;13.75;13.50;;;;;;;;4997984;28;51107;-50
2022/03/13 08:31:03;;;;;;;;;14.50;10.75;;;;;;;;4998285;28;51467;-48
2022/03/13 08:33:49;;;;;;;;;15.25;12.75;;;;;;;;4998651;28;51410;-48
2022/03/13 08:36:35;;;;;;;;;22.75;17.50;;;;;;;;4996195;28;51250;-48
2022/03/13 08:39:19;;;;;;;;;12.75;12.50;;;;;;;;4999799;28;51039;-50
2022/03/13 08:42:04;;;;;;;;;24.75;21.00;;;;;;;;4999269;28;51097;-50
2022/03/13 08:44:48;;;;;;;;;20.50;15.75;;;;;;;;4999891;28;51161;-47
2022/03/13 08:47:32;;;;;;;;;15.25;10.75;;;;;;;;4999656;28;51144;-47
2022/03/13 08:50:17;;;;;;;;;12.00;10.50;;;;;;;;4997476;28;51186;-46
2022/03/13 08:53:01;;;;;;;;;22.75;21.00;;;;;;;;4999782;28;51092;-50
2022/03/13 08:55:46;;;;;;;;;15.00;13.75;;;;;;;;4999342;28;51427;-49
2022/03/13 08:58:30;;;;;;;;;19.00;14.75;;;;;;;;4999067;28;51443;-50
2022/03/13 09:01:14;;;;;;;;;16.25;11.75;;;;;;;;4998860;28;51190;-46
2022/03/13 09:03:59;;;;;;;;;13.75;12.50;;;;;;;;4998764;28;51147;-49
2022/03/13 09:06:43;;;;;;;;;16.75;14.75;;;;;;;;4994083;28;51185;-49
2022/03/13 09:09:28;;;;;;;;;12.75;12.75;;;;;;;;4998749;28;51149;-51
2022/03/13 09:12:13;;;;;;;;;19.25;17.25;;;;;;;;4999131;28;51431;-48
2022/03/13 09:14:58;;;;;;;;;16.25;14.25;;;;;;;;4996967;28;51471;-51
2022/03/13 09:17:42;;;;;;;;;15.00;14.75;;;;;;;;4999845;28;51280;-48
2022/03/13 09:20:26;;;;;;;;;19.50;16.00;;;;;;;;4984163;28;51028;-49
2022/03/13 09:23:11;;;;;;;;;19.25;16.50;;;;;;;;4998968;28;51395;-51
2022/03/13 09:25:56;;;;;;;;;18.00;13.25;;;;;;;;4998833;28;51140;-48
2022/03/13 09:28:40;;;;;;;;;17.25;17.25;;;;;;;;4998641;28;51209;-48
2022/03/13 09:31:24;;;;;;;;;16.00;14.75;;;;;;;;4995047;28;51344;-47
2022/03/13 09:34:09;;;;;;;;;15.75;14.50;;;;;;;;4994895;28;51748;-48
2022/03/13 09:36:53;;;;;;;;;19.25;11.50;;;;;;;;4992029;28;51529;-47
2022/03/13 09:39:38;;;;;;;;;14.25;13.75;;;;;;;;4977029;28;51052;-52
2022/03/13 09:42:22;;;;;;;;;21.50;18.25;;;;;;;;4993925;28;51004;-48
2022/03/13 09:45:06;;;;;;;;;10.75;9.25;;;;;;;;4997798;28;51113;-50
2022/03/13 09:47:51;;;;;;;;;18.00;15.00;;;;;;;;4998723;28;51137;-49
2022/03/13 09:50:35;;;;;;;;;20.00;15.25;;;;;;;;4997807;28;51085;-48
2022/03/13 09:53:20;;;;;;;;;16.25;15.50;;;;;;;;4993233;28;51142;-47
2022/03/13 09:56:05;;;;;;;;;19.00;17.00;;;;;;;;4997745;28;51468;-50
2022/03/13 09:58:49;;;;;;;;;7.00;7.00;;;;;;;;4998453;28;51065;-49
2022/03/13 10:01:33;;;;;;;;;4.00;2.25;;;;;;;;4997682;28;51193;-50
2022/03/13 10:04:18;;;;;;;;;5.00;4.75;;;;;;;;4998301;28;51302;-47
2022/03/13 10:07:12;;;;;;;;;3.75;1.75;;;;;;;;4998394;28;51103;-50
2022/03/13 10:10:08;;;;;;;;;3.25;2.25;;;;;;;;4998417;28;51092;-47
2022/03/13 10:12:52;;;;;;;;;3.00;3.00;;;;;;;;4997964;28;51061;-51
2022/03/13 10:15:41;;;;;;;;;3.00;1.00;;;;;;;;4987809;28;51231;-49
2022/03/13 10:18:25;;;;;;;;;5.25;3.25;;;;;;;;4998298;28;51164;-49
2022/03/13 10:21:12;;;;;;;;;6.75;2.75;;;;;;;;4996819;28;52065;-52
2022/03/13 10:24:08;;;;;;;;;4.00;4.00;;;;;;;;4998126;28;51137;-52
2022/03/13 10:27:12;;;;;;;;;9.00;4.25;;;;;;;;4997860;28;51740;-50
2022/03/13 10:29:57;;;;;;;;;7.25;3.50;;;;;;;;4999622;28;51156;-49
2022/03/13 10:32:41;;;;;;;;;4.00;2.00;;;;;;;;4997775;28;51130;-51
2022/03/13 10:35:25;;;;;;;;;5.00;4.25;;;;;;;;4999463;28;51101;-49
2022/03/13 10:38:14;;;;;;;;;9.75;5.00;;;;;;;;5001806;28;51183;-47
2022/03/13 10:40:58;;;;;;;;;4.75;3.25;;;;;;;;5000741;28;51204;-45
2022/03/13 10:43:53;;;;;;;;;7.50;4.00;;;;;;;;5000450;28;51156;-50
2022/03/13 10:46:37;;;;;;;;;4.75;2.50;;;;;;;;5001599;28;51052;-49
2022/03/13 10:49:41;;;;;;;;;7.25;4.50;;;;;;;;5000831;28;51163;-49
2022/03/13 10:52:25;;;;;;;;;2.00;2.00;;;;;;;;5000419;28;51273;-50
2022/03/13 10:55:18;;;;;;;;;3.50;2.00;;;;;;;;5000873;28;51068;-49
2022/03/13 10:58:02;;;;;;;;;6.00;3.50;;;;;;;;5002248;28;51334;-49
2022/03/13 11:01:01;;;;;;;;;5.25;3.25;;;;;;;;5001198;28;51036;-50
2022/03/13 11:03:55;;;;;;;;;8.50;3.00;;;;;;;;5000978;28;51260;-50
2022/03/13 11:06:39;;;;;;;;;6.25;5.50;;;;;;;;4998537;28;51123;-47
2022/03/13 11:09:24;;;;;;;;;4.50;2.75;;;;;;;;5001727;28;51108;-47
2022/03/13 11:12:15;;;;;;;;;5.00;3.00;;;;;;;;5001787;28;51139;-45
2022/03/13 11:15:01;;;;;;;;;5.00;2.00;;;;;;;;5001510;28;51129;-45
2022/03/13 11:17:46;;;;;;;;;6.50;4.00;;;;;;;;4998204;28;51175;-50
2022/03/13 11:20:31;;;;;;;;;3.75;2.00;;;;;;;;5000487;28;51244;-48
2022/03/13 11:23:15;;;;;;;;;4.00;3.50;;;;;;;;5001195;28;51220;-48
2022/03/13 11:26:00;;;;;;;;;6.50;3.75;;;;;;;;5000579;28;51072;-48
2022/03/13 11:28:45;;;;;;;;;5.75;1.50;;;;;;;;4999673;28;51204;-49
2022/03/13 11:31:33;;;;;;;;;4.50;3.50;;;;;;;;4998494;28;51088;-51
2022/03/13 11:34:23;;;;;;;;;8.00;5.00;;;;;;;;5001326;28;51041;-50
2022/03/13 11:37:27;;;;;;;;;1.50;1.50;;;;;;;;5001557;28;51611;-51
2022/03/13 11:40:13;;;;;;;;;6.75;4.25;;;;;;;;5001439;28;51101;-48
2022/03/13 11:43:17;;;;;;;;;8.25;4.50;;;;;;;;5001702;28;51429;-51
2022/03/13 11:46:01;;;;;;;;;9.25;4.00;;;;;;;;5001144;28;51164;-49
2022/03/13 11:48:46;;;;;;;;;5.75;3.25;;;;;;;;5001007;28;51100;-46
2022/03/13 11:51:31;;;;;;;;;6.50;5.00;;;;;;;;5000744;28;51235;-46
2022/03/13 11:54:35;;;;;;;;;5.50;4.00;;;;;;;;5001233;28;51183;-51
2022/03/13 11:57:20;;;;;;;;;6.25;4.00;;;;;;;;5000690;28;51144;-49
2022/03/13 12:00:08;;;;;;;;;5.00;2.50;;;;;;;;5001362;28;51093;-48
2022/03/13 12:02:52;;;;;;;;;5.00;3.25;;;;;;;;4976556;28;52380;-49
2022/03/13 12:05:46;;;;;;;;;6.50;3.50;;;;;;;;5001121;28;51121;-50
2022/03/13 12:08:50;;;;;;;;;4.00;2.50;;;;;;;;5000994;28;51193;-48
2022/03/13 12:11:38;;;;;;;;;4.75;3.00;;;;;;;;5001607;28;51102;-49
2022/03/13 12:14:43;;;;;;;;;4.50;2.00;;;;;;;;5003476;28;51187;-49
2022/03/13 12:17:31;;;;;;;;;2.75;2.75;;;;;;;;5001090;28;51057;-47
2022/03/13 12:20:22;;;;;;;;;4.00;2.25;;;;;;;;4999280;28;51080;-47
2022/03/13 12:23:07;;;;;;;;;6.00;4.00;;;;;;;;4998224;28;51142;-50
2022/03/13 12:25:53;;;;;;;;;5.75;3.00;;;;;;;;4995678;28;51233;-49
2022/03/13 12:28:38;;;;;;;;;9.50;4.00;;;;;;;;4994093;28;51147;-50
2022/03/13 12:31:22;;;;;;;;;5.50;3.50;;;;;;;;4997833;28;51071;-49
2022/03/13 12:34:07;;;;;;;;;8.50;4.50;;;;;;;;4998773;28;51128;-47
2022/03/13 12:36:53;;;;;;;;;4.75;4.75;;;;;;;;4999166;28;51095;-50
2022/03/13 12:39:55;;;;;;;;;4.75;3.25;;;;;;;;4999352;28;51218;-47
2022/03/13 12:42:39;;;;;;;;;6.75;1.50;;;;;;;;4999606;28;51220;-48
2022/03/13 12:45:24;;;;;;;;;4.75;4.00;;;;;;;;4999684;28;51513;-49
2022/03/13 12:48:13;;;;;;;;;1.75;1.50;;;;;;;;4999449;28;51595;-49
2022/03/13 12:50:57;;;;;;;;;6.75;3.50;;;;;;;;4997689;28;51364;-47
2022/03/13 12:53:51;;;;;;;;;2.75;2.00;;;;;;;;4997939;28;51480;-44
2022/03/13 12:56:45;;;;;;;;;6.75;3.00;;;;;;;;4996975;28;51087;-44
2022/03/13 12:59:38;;;;;;;;;3.00;3.00;;;;;;;;4999102;28;51053;-47
2022/03/13 13:02:25;;;;;;;;;5.00;5.00;;;;;;;;4999529;28;51073;-48
2022/03/13 13:05:12;;;;;;;;;4.25;3.00;;;;;;;;4997176;28;51334;-49
2022/03/13 13:07:57;;;;;;;;;6.75;3.25;;;;;;;;4996098;28;51212;-46
2022/03/13 13:10:42;;;;;;;;;5.00;3.50;;;;;;;;4999677;28;51070;-47
2022/03/13 13:13:26;;;;;;;;;6.00;4.25;;;;;;;;4999126;28;51161;-49
2022/03/13 13:16:10;;;;;;;;;3.25;3.00;;;;;;;;4998900;28;51110;-47
2022/03/13 13:18:55;;;;;;;;;5.00;1.00;;;;;;;;4999177;28;51376;-47
2022/03/13 13:21:40;;;;;;;;;5.75;4.75;;;;;;;;4998399;28;52406;-46
2022/03/13 13:24:46;;;;;;;;;5.25;4.00;;;;;;;;4998144;28;51399;-48
2022/03/13 13:27:29;;;;;;;;;4.50;3.00;;;;;;;;4998993;28;51165;-48
2022/03/13 13:30:14;;;;;;;;;3.00;2.50;;;;;;;;4996963;28;51503;-45
2022/03/13 13:33:08;;;;;;;;;3.75;3.75;;;;;;;;4998109;28;51199;-47
2022/03/13 13:35:54;;;;;;;;;7.50;4.50;;;;;;;;4999891;28;51659;-47
2022/03/13 13:38:38;;;;;;;;;0.00;0.00;;;;;;;;4999521;28;51247;-46
2022/03/13 13:41:23;;;;;;;;;5.00;3.75;;;;;;;;4997252;28;51163;-49
2022/03/13 13:44:07;;;;;;;;;5.75;1.00;;;;;;;;4997756;28;51463;-49
2022/03/13 13:47:03;;;;;;;;;4.50;4.00;;;;;;;;4997450;28;51064;-47
2022/03/13 13:49:47;;;;;;;;;6.75;5.00;;;;;;;;4998174;28;51423;-46
2022/03/13 13:52:33;;;;;;;;;5.75;3.25;;;;;;;;4997538;28;51314;-47
2022/03/13 13:55:21;;;;;;;;;10.00;4.50;;;;;;;;4995813;28;51187;-46
2022/03/13 13:58:18;;;;;;;;;7.25;4.75;;;;;;;;4997954;28;51190;-49
2022/03/13 14:01:22;;;;;;;;;4.25;3.00;;;;;;;;4998220;28;51308;-47
2022/03/13 14:04:06;;;;;;;;;3.50;2.00;;;;;;;;4999609;28;51301;-47
2022/03/13 14:06:53;;;;;;;;;5.25;1.75;;;;;;;;5001540;28;51180;-45
2022/03/13 14:09:38;;;;;;;;;6.75;3.75;;;;;;;;5002338;28;51167;-47
2022/03/13 14:12:22;;;;;;;;;4.00;3.00;;;;;;;;5002166;28;51129;-45
2022/03/13 14:15:07;;;;;;;;;4.75;3.00;;;;;;;;5002182;28;51127;-45
2022/03/13 14:17:51;;;;;;;;;3.00;3.00;;;;;;;;5001883;28;51161;-48
2022/03/13 14:20:36;;;;;;;;;4.25;4.25;;;;;;;;5003171;28;51532;-47
2022/03/13 14:23:20;;;;;;;;;4.00;3.00;;;;;;;;5006466;28;51284;-47
2022/03/13 14:26:04;;;;;;;;;7.00;4.00;;;;;;;;5005298;28;51717;-47
2022/03/13 14:28:49;;;;;;;;;4.00;3.00;;;;;;;;4999909;28;51426;-47
2022/03/13 14:31:34;;;;;;;;;4.25;3.00;;;;;;;;5000955;28;51202;-46
2022/03/13 14:34:19;;;;;;;;;4.50;4.50;;;;;;;;5001542;28;51038;-51
2022/03/13 14:37:03;;;;;;;;;4.50;4.50;;;;;;;;5000230;28;51255;-51
2022/03/13 14:39:48;;;;;;;;;7.00;5.50;;;;;;;;5001951;28;51186;-48
2022/03/13 14:42:32;;;;;;;;;6.75;4.75;;;;;;;;5002411;28;51100;-50
2022/03/13 14:45:17;;;;;;;;;5.25;5.00;;;;;;;;5000344;28;51437;-48
2022/03/13 14:48:01;;;;;;;;;9.75;4.00;;;;;;;;5001893;28;51071;-49
2022/03/13 14:50:46;;;;;;;;;7.50;4.50;;;;;;;;5001770;28;51550;-48
2022/03/13 14:53:34;;;;;;;;;10.25;6.25;;;;;;;;5000339;28;51091;-48
2022/03/13 14:56:19;;;;;;;;;6.25;4.75;;;;;;;;5002039;28;51428;-47
2022/03/13 14:59:03;;;;;;;;;8.00;5.50;;;;;;;;5001632;28;51051;-49
2022/03/13 15:01:48;;;;;;;;;8.25;7.00;;;;;;;;5001196;28;51127;-48
2022/03/13 15:04:33;;;;;;;;;7.75;6.00;;;;;;;;5001615;28;51202;-47
2022/03/13 15:07:18;;;;;;;;;5.75;3.00;;;;;;;;5001554;28;51125;-47
2022/03/13 15:10:06;;;;;;;;;8.25;5.75;;;;;;;;5001243;28;51170;-46
2022/03/13 15:12:51;;;;;;;;;6.25;6.00;;;;;;;;5001223;28;51677;-46
2022/03/13 15:15:35;;;;;;;;;9.25;5.00;;;;;;;;4998564;28;51084;-48
2022/03/13 15:18:20;;;;;;;;;5.75;4.75;;;;;;;;5000756;28;51538;-46
2022/03/13 15:21:04;;;;;;;;;7.50;6.00;;;;;;;;5001286;28;51161;-47
2022/03/13 15:23:50;;;;;;;;;9.00;3.00;;;;;;;;5000318;28;51347;-50
2022/03/13 15:26:40;;;;;;;;;8.25;5.00;;;;;;;;4995205;28;51217;-46
2022/03/13 15:29:25;;;;;;;;;9.00;5.00;;;;;;;;5003274;28;51252;-48
2022/03/13 15:32:11;;;;;;;;;7.75;6.00;;;;;;;;5003680;28;51225;-48
2022/03/13 15:34:55;;;;;;;;;8.00;5.00;;;;;;;;5009123;28;51515;-49
2022/03/13 15:37:40;;;;;;;;;6.75;4.00;;;;;;;;5010071;28;51159;-48
2022/03/13 15:40:24;;;;;;;;;6.75;5.00;;;;;;;;5010194;28;51201;-48
2022/03/13 15:43:10;;;;;;;;;7.25;4.25;;;;;;;;5010541;28;51170;-47
2022/03/13 15:45:54;;;;;;;;;7.00;6.00;;;;;;;;5011337;28;51074;-48
2022/03/13 15:48:39;;;;;;;;;5.25;4.00;;;;;;;;5004864;28;51135;-46
2022/03/13 15:51:24;;;;;;;;;5.00;3.50;;;;;;;;5007377;28;51195;-46
2022/03/13 15:54:08;;;;;;;;;3.50;3.50;;;;;;;;5005722;28;51540;-47
2022/03/13 15:56:52;;;;;;;;;8.75;4.75;;;;;;;;5008376;28;51186;-49
2022/03/13 15:59:37;;;;;;;;;4.50;3.75;;;;;;;;5008306;28;51560;-48
2022/03/13 16:02:25;;;;;;;;;7.25;6.00;;;;;;;;5000699;28;51266;-49
2022/03/13 16:05:09;;;;;;;;;5.25;4.00;;;;;;;;5007188;28;51261;-47
2022/03/13 16:07:53;;;;;;;;;9.00;3.75;;;;;;;;5002981;28;51115;-49
2022/03/13 16:10:38;;;;;;;;;4.00;2.50;;;;;;;;5005071;28;51144;-51
2022/03/13 16:13:25;;;;;;;;;4.50;4.25;;;;;;;;5007037;28;51401;-48
2022/03/13 16:16:09;;;;;;;;;5.25;3.25;;;;;;;;5004263;28;51371;-48
2022/03/13 16:18:54;;;;;;;;;5.25;3.25;;;;;;;;5010532;28;51239;-47
2022/03/13 16:21:40;;;;;;;;;4.25;2.25;;;;;;;;5004192;28;51493;-50